sensor_id;sensor_type;location;lat;lon;timestamp;P1;durP1;ratioP1;P2;durP2;ratioP2
22097;SDS011;11215;51.938;8.464;2023-02-28T00:05:29;2.27;;;2.03;;
22097;SDS011;11215;51.938;8.464;2023-02-28T00:11:17;4.07;;;2.20;;
22097;SDS011;11215;51.938;8.464;2023-02-28T00:19:49;3.87;;;2.30;;
22097;SDS011;11215;51.938;8.464;2023-02-28T00:28:20;4.10;;;2.40;;
22097;SDS011;11215;51.938;8.464;2023-02-28T00:33:49;3.90;;;2.47;;
22097;SDS011;11215;51.938;8.464;2023-02-28T00:36:16;5.27;;;2.30;;
22097;SDS011;11215;51.938;8.464;2023-02-28T00:42:04;2.73;;;2.03;;
22097;SDS011;11215;51.938;8.464;2023-02-28T00:51:08;3.10;;;2.13;;
22097;SDS011;11215;51.938;8.464;2023-02-28T00:56:50;3.83;;;1.90;;
22097;SDS011;11215;51.938;8.464;2023-02-28T01:02:37;3.13;;;2.30;;
22097;SDS011;11215;51.938;8.464;2023-02-28T01:05:17;3.30;;;2.47;;
22097;SDS011;11215;51.938;8.464;2023-02-28T01:07:43;5.40;;;2.67;;
22097;SDS011;11215;51.938;8.464;2023-02-28T01:12:52;3.03;;;2.60;;
22097;SDS011;11215;51.938;8.464;2023-02-28T01:18:03;6.73;;;3.07;;
22097;SDS011;11215;51.938;8.464;2023-02-28T01:27:13;4.40;;;2.60;;
22097;SDS011;11215;51.938;8.464;2023-02-28T01:33:00;4.30;;;2.70;;
22097;SDS011;11215;51.938;8.464;2023-02-28T01:42:29;4.33;;;2.27;;
22097;SDS011;11215;51.938;8.464;2023-02-28T01:48:16;5.00;;;2.93;;
22097;SDS011;11215;51.938;8.464;2023-02-28T01:54:09;3.77;;;2.87;;
22097;SDS011;11215;51.938;8.464;2023-02-28T02:00:01;3.37;;;2.40;;
22097;SDS011;11215;51.938;8.464;2023-02-28T02:09:13;3.67;;;2.43;;
22097;SDS011;11215;51.938;8.464;2023-02-28T02:24:47;3.77;;;1.97;;
22097;SDS011;11215;51.938;8.464;2023-02-28T02:37:01;3.53;;;2.00;;
22097;SDS011;11215;51.938;8.464;2023-02-28T02:45:19;2.40;;;1.90;;
22097;SDS011;11215;51.938;8.464;2023-02-28T02:48:09;2.13;;;1.93;;
22097;SDS011;11215;51.938;8.464;2023-02-28T02:53:35;2.83;;;2.07;;
22097;SDS011;11215;51.938;8.464;2023-02-28T03:13:46;2.17;;;1.70;;
22097;SDS011;11215;51.938;8.464;2023-02-28T03:35:06;2.77;;;1.93;;
22097;SDS011;11215;51.938;8.464;2023-02-28T03:38:31;1.63;;;1.40;;
22097;SDS011;11215;51.938;8.464;2023-02-28T03:41:31;2.30;;;1.63;;
22097;SDS011;11215;51.938;8.464;2023-02-28T03:44:06;2.97;;;1.90;;
22097;SDS011;11215;51.938;8.464;2023-02-28T03:46:58;2.40;;;1.70;;
22097;SDS011;11215;51.938;8.464;2023-02-28T03:56:07;1.60;;;1.23;;
22097;SDS011;11215;51.938;8.464;2023-02-28T04:08:26;2.60;;;1.80;;
22097;SDS011;11215;51.938;8.464;2023-02-28T04:10:57;2.20;;;1.70;;
22097;SDS011;11215;51.938;8.464;2023-02-28T04:14:01;2.67;;;1.67;;
22097;SDS011;11215;51.938;8.464;2023-02-28T04:22:40;2.47;;;1.70;;
22097;SDS011;11215;51.938;8.464;2023-02-28T04:35:43;2.43;;;1.47;;
22097;SDS011;11215;51.938;8.464;2023-02-28T04:41:30;2.50;;;1.80;;
22097;SDS011;11215;51.938;8.464;2023-02-28T04:43:56;2.30;;;1.50;;
22097;SDS011;11215;51.938;8.464;2023-02-28T04:49:53;3.30;;;1.70;;
22097;SDS011;11215;51.938;8.464;2023-02-28T04:58:25;3.00;;;1.93;;
22097;SDS011;11215;51.938;8.464;2023-02-28T05:00:52;2.47;;;1.73;;
22097;SDS011;11215;51.938;8.464;2023-02-28T05:03:33;2.00;;;1.80;;
22097;SDS011;11215;51.938;8.464;2023-02-28T05:05:59;3.17;;;1.80;;
22097;SDS011;11215;51.938;8.464;2023-02-28T05:10:55;4.20;;;1.80;;
22097;SDS011;11215;51.938;8.464;2023-02-28T05:16:57;3.67;;;1.60;;
22097;SDS011;11215;51.938;8.464;2023-02-28T05:19:23;2.37;;;1.70;;
22097;SDS011;11215;51.938;8.464;2023-02-28T05:37:27;2.70;;;2.10;;
22097;SDS011;11215;51.938;8.464;2023-02-28T05:39:52;2.33;;;1.90;;
22097;SDS011;11215;51.938;8.464;2023-02-28T05:48:34;3.27;;;1.87;;
22097;SDS011;11215;51.938;8.464;2023-02-28T05:51:01;2.83;;;2.07;;
22097;SDS011;11215;51.938;8.464;2023-02-28T05:53:28;2.93;;;2.07;;
22097;SDS011;11215;51.938;8.464;2023-02-28T06:01:53;3.20;;;2.47;;
22097;SDS011;11215;51.938;8.464;2023-02-28T06:10:50;4.60;;;2.37;;
22097;SDS011;11215;51.938;8.464;2023-02-28T06:13:16;3.37;;;2.40;;
22097;SDS011;11215;51.938;8.464;2023-02-28T06:19:03;3.53;;;2.00;;
22097;SDS011;11215;51.938;8.464;2023-02-28T06:21:37;2.57;;;2.03;;
22097;SDS011;11215;51.938;8.464;2023-02-28T06:24:03;2.20;;;1.90;;
22097;SDS011;11215;51.938;8.464;2023-02-28T06:29:33;2.73;;;2.13;;
22097;SDS011;11215;51.938;8.464;2023-02-28T06:32:07;3.43;;;2.20;;
22097;SDS011;11215;51.938;8.464;2023-02-28T06:34:32;2.60;;;1.87;;
22097;SDS011;11215;51.938;8.464;2023-02-28T06:40:23;2.80;;;1.90;;
22097;SDS011;11215;51.938;8.464;2023-02-28T06:46:12;3.30;;;2.07;;
22097;SDS011;11215;51.938;8.464;2023-02-28T06:55:04;3.33;;;2.00;;
22097;SDS011;11215;51.938;8.464;2023-02-28T07:00:53;4.03;;;2.20;;
22097;SDS011;11215;51.938;8.464;2023-02-28T07:23:18;4.90;;;2.80;;
22097;SDS011;11215;51.938;8.464;2023-02-28T07:25:45;4.13;;;2.50;;
22097;SDS011;11215;51.938;8.464;2023-02-28T07:31:06;3.60;;;2.53;;
22097;SDS011;11215;51.938;8.464;2023-02-28T07:40:16;4.80;;;2.47;;
22097;SDS011;11215;51.938;8.464;2023-02-28T07:52:22;5.13;;;3.00;;
22097;SDS011;11215;51.938;8.464;2023-02-28T07:58:11;7.17;;;3.50;;
22097;SDS011;11215;51.938;8.464;2023-02-28T08:03:56;7.03;;;4.17;;
22097;SDS011;11215;51.938;8.464;2023-02-28T08:06:27;7.43;;;4.80;;
22097;SDS011;11215;51.938;8.464;2023-02-28T08:08:53;6.57;;;3.87;;
22097;SDS011;11215;51.938;8.464;2023-02-28T08:14:44;5.47;;;3.43;;
22097;SDS011;11215;51.938;8.464;2023-02-28T08:17:10;3.93;;;2.67;;
22097;SDS011;11215;51.938;8.464;2023-02-28T08:22:44;3.90;;;2.40;;
22097;SDS011;11215;51.938;8.464;2023-02-28T08:35:22;3.17;;;1.70;;
22097;SDS011;11215;51.938;8.464;2023-02-28T08:37:48;2.73;;;1.70;;
22097;SDS011;11215;51.938;8.464;2023-02-28T08:43:36;1.87;;;1.47;;
22097;SDS011;11215;51.938;8.464;2023-02-28T08:46:03;1.73;;;1.60;;
22097;SDS011;11215;51.938;8.464;2023-02-28T08:48:44;2.27;;;2.00;;
22097;SDS011;11215;51.938;8.464;2023-02-28T08:51:11;1.93;;;1.40;;
22097;SDS011;11215;51.938;8.464;2023-02-28T08:57:09;3.00;;;1.30;;
22097;SDS011;11215;51.938;8.464;2023-02-28T08:59:35;1.93;;;1.40;;
22097;SDS011;11215;51.938;8.464;2023-02-28T09:02:09;3.33;;;1.50;;
22097;SDS011;11215;51.938;8.464;2023-02-28T09:04:38;2.57;;;1.37;;
22097;SDS011;11215;51.938;8.464;2023-02-28T09:07:04;2.83;;;1.60;;
22097;SDS011;11215;51.938;8.464;2023-02-28T09:15:39;2.47;;;1.60;;
22097;SDS011;11215;51.938;8.464;2023-02-28T09:18:05;1.57;;;1.30;;
22097;SDS011;11215;51.938;8.464;2023-02-28T09:20:43;1.47;;;1.37;;
22097;SDS011;11215;51.938;8.464;2023-02-28T09:23:10;1.57;;;1.20;;
22097;SDS011;11215;51.938;8.464;2023-02-28T09:28:25;3.43;;;1.70;;
22097;SDS011;11215;51.938;8.464;2023-02-28T09:34:12;1.83;;;1.17;;
22097;SDS011;11215;51.938;8.464;2023-02-28T09:40:00;1.90;;;1.30;;
22097;SDS011;11215;51.938;8.464;2023-02-28T09:54:21;2.33;;;1.70;;
22097;SDS011;11215;51.938;8.464;2023-02-28T09:56:53;2.80;;;1.90;;
22097;SDS011;11215;51.938;8.464;2023-02-28T10:08:15;2.53;;;1.60;;
22097;SDS011;11215;51.938;8.464;2023-02-28T10:10:45;2.63;;;2.00;;
22097;SDS011;11215;51.938;8.464;2023-02-28T10:13:15;3.10;;;1.90;;
22097;SDS011;11215;51.938;8.464;2023-02-28T10:15:50;3.27;;;2.00;;
22097;SDS011;11215;51.938;8.464;2023-02-28T10:18:30;3.63;;;2.07;;
22097;SDS011;11215;51.938;8.464;2023-02-28T10:21:17;2.50;;;2.07;;
22097;SDS011;11215;51.938;8.464;2023-02-28T10:27:00;5.70;;;2.33;;
22097;SDS011;11215;51.938;8.464;2023-02-28T10:29:31;2.33;;;1.80;;
22097;SDS011;11215;51.938;8.464;2023-02-28T10:31:58;2.30;;;1.63;;
22097;SDS011;11215;51.938;8.464;2023-02-28T10:34:27;2.63;;;1.80;;
22097;SDS011;11215;51.938;8.464;2023-02-28T10:36:53;3.30;;;1.80;;
22097;SDS011;11215;51.938;8.464;2023-02-28T10:39:39;3.10;;;1.90;;
22097;SDS011;11215;51.938;8.464;2023-02-28T10:42:18;3.40;;;2.00;;
22097;SDS011;11215;51.938;8.464;2023-02-28T10:45:04;2.00;;;1.63;;
22097;SDS011;11215;51.938;8.464;2023-02-28T10:47:32;2.60;;;2.00;;
22097;SDS011;11215;51.938;8.464;2023-02-28T10:50:03;4.33;;;2.10;;
22097;SDS011;11215;51.938;8.464;2023-02-28T10:52:36;2.53;;;1.83;;
22097;SDS011;11215;51.938;8.464;2023-02-28T10:55:15;2.40;;;1.90;;
22097;SDS011;11215;51.938;8.464;2023-02-28T10:57:50;3.83;;;1.87;;
22097;SDS011;11215;51.938;8.464;2023-02-28T11:00:20;2.97;;;1.80;;
22097;SDS011;11215;51.938;8.464;2023-02-28T11:02:48;4.83;;;2.07;;
22097;SDS011;11215;51.938;8.464;2023-02-28T11:05:33;2.73;;;2.07;;
22097;SDS011;11215;51.938;8.464;2023-02-28T11:08:17;3.67;;;2.17;;
22097;SDS011;11215;51.938;8.464;2023-02-28T11:10:44;3.50;;;1.70;;
22097;SDS011;11215;51.938;8.464;2023-02-28T11:13:19;2.80;;;2.20;;
22097;SDS011;11215;51.938;8.464;2023-02-28T11:15:51;2.77;;;1.87;;
22097;SDS011;11215;51.938;8.464;2023-02-28T11:18:30;2.07;;;1.77;;
22097;SDS011;11215;51.938;8.464;2023-02-28T11:21:05;3.40;;;1.80;;
22097;SDS011;11215;51.938;8.464;2023-02-28T11:23:33;1.73;;;1.53;;
22097;SDS011;11215;51.938;8.464;2023-02-28T11:26:04;2.53;;;1.50;;
22097;SDS011;11215;51.938;8.464;2023-02-28T11:28:39;2.57;;;1.77;;
22097;SDS011;11215;51.938;8.464;2023-02-28T11:38:49;3.17;;;1.20;;
22097;SDS011;11215;51.938;8.464;2023-02-28T11:41:19;1.50;;;1.10;;
22097;SDS011;11215;51.938;8.464;2023-02-28T11:46:49;2.33;;;1.67;;
22097;SDS011;11215;51.938;8.464;2023-02-28T12:06:13;2.70;;;1.53;;
22097;SDS011;11215;51.938;8.464;2023-02-28T12:17:06;3.20;;;2.10;;
22097;SDS011;11215;51.938;8.464;2023-02-28T12:22:42;3.47;;;1.90;;
22097;SDS011;11215;51.938;8.464;2023-02-28T12:28:31;3.60;;;2.13;;
22097;SDS011;11215;51.938;8.464;2023-02-28T12:31:04;2.70;;;2.10;;
22097;SDS011;11215;51.938;8.464;2023-02-28T12:33:38;4.00;;;1.90;;
22097;SDS011;11215;51.938;8.464;2023-02-28T12:36:12;1.80;;;1.60;;
22097;SDS011;11215;51.938;8.464;2023-02-28T12:38:45;2.40;;;2.10;;
22097;SDS011;11215;51.938;8.464;2023-02-28T12:41:59;2.57;;;2.20;;
22097;SDS011;11215;51.938;8.464;2023-02-28T12:44:51;4.83;;;1.80;;
22097;SDS011;11215;51.938;8.464;2023-02-28T12:47:16;2.07;;;1.87;;
22097;SDS011;11215;51.938;8.464;2023-02-28T12:52:59;2.33;;;1.70;;
22097;SDS011;11215;51.938;8.464;2023-02-28T12:55:40;3.80;;;2.10;;
22097;SDS011;11215;51.938;8.464;2023-02-28T12:58:14;2.80;;;2.00;;
22097;SDS011;11215;51.938;8.464;2023-02-28T13:00:55;2.30;;;2.10;;
22097;SDS011;11215;51.938;8.464;2023-02-28T13:09:15;3.07;;;2.00;;
22097;SDS011;11215;51.938;8.464;2023-02-28T13:11:49;2.33;;;2.10;;
22097;SDS011;11215;51.938;8.464;2023-02-28T13:16:57;3.33;;;2.20;;
22097;SDS011;11215;51.938;8.464;2023-02-28T13:19:25;3.00;;;2.33;;
22097;SDS011;11215;51.938;8.464;2023-02-28T13:21:54;3.00;;;1.70;;
22097;SDS011;11215;51.938;8.464;2023-02-28T13:24:38;2.40;;;2.00;;
22097;SDS011;11215;51.938;8.464;2023-02-28T13:34:35;4.83;;;2.20;;
22097;SDS011;11215;51.938;8.464;2023-02-28T14:01:25;3.60;;;2.57;;
22097;SDS011;11215;51.938;8.464;2023-02-28T14:04:06;3.87;;;2.10;;
22097;SDS011;11215;51.938;8.464;2023-02-28T14:06:57;2.70;;;1.93;;
22097;SDS011;11215;51.938;8.464;2023-02-28T14:09:25;2.67;;;2.20;;
22097;SDS011;11215;51.938;8.464;2023-02-28T14:11:56;2.47;;;2.10;;
22097;SDS011;11215;51.938;8.464;2023-02-28T14:17:04;2.90;;;2.30;;
22097;SDS011;11215;51.938;8.464;2023-02-28T14:19:39;3.57;;;2.27;;
22097;SDS011;11215;51.938;8.464;2023-02-28T14:27:53;4.03;;;2.50;;
22097;SDS011;11215;51.938;8.464;2023-02-28T14:33:27;3.07;;;2.00;;
22097;SDS011;11215;51.938;8.464;2023-02-28T14:36:21;2.87;;;2.47;;
22097;SDS011;11215;51.938;8.464;2023-02-28T14:38:51;5.13;;;2.83;;
22097;SDS011;11215;51.938;8.464;2023-02-28T14:41:24;3.07;;;2.40;;
22097;SDS011;11215;51.938;8.464;2023-02-28T14:44:02;4.60;;;2.47;;
22097;SDS011;11215;51.938;8.464;2023-02-28T14:46:43;4.60;;;2.67;;
22097;SDS011;11215;51.938;8.464;2023-02-28T14:49:15;3.37;;;2.53;;
22097;SDS011;11215;51.938;8.464;2023-02-28T14:51:44;5.30;;;2.60;;
22097;SDS011;11215;51.938;8.464;2023-02-28T14:54:12;4.33;;;2.40;;
22097;SDS011;11215;51.938;8.464;2023-02-28T14:56:40;3.60;;;2.77;;
22097;SDS011;11215;51.938;8.464;2023-02-28T14:59:21;2.67;;;2.30;;
22097;SDS011;11215;51.938;8.464;2023-02-28T15:01:50;3.00;;;2.43;;
22097;SDS011;11215;51.938;8.464;2023-02-28T15:04:25;3.03;;;2.57;;
22097;SDS011;11215;51.938;8.464;2023-02-28T15:07:15;4.17;;;2.40;;
22097;SDS011;11215;51.938;8.464;2023-02-28T15:09:41;3.97;;;2.40;;
22097;SDS011;11215;51.938;8.464;2023-02-28T15:12:06;2.60;;;2.13;;
22097;SDS011;11215;51.938;8.464;2023-02-28T15:14:36;4.90;;;2.57;;
22097;SDS011;11215;51.938;8.464;2023-02-28T15:17:06;3.70;;;2.70;;
22097;SDS011;11215;51.938;8.464;2023-02-28T15:19:41;3.20;;;2.63;;
22097;SDS011;11215;51.938;8.464;2023-02-28T15:22:15;4.93;;;3.37;;
22097;SDS011;11215;51.938;8.464;2023-02-28T15:27:14;3.63;;;2.90;;
22097;SDS011;11215;51.938;8.464;2023-02-28T15:29:47;5.00;;;2.80;;
22097;SDS011;11215;51.938;8.464;2023-02-28T15:32:38;3.93;;;2.70;;
22097;SDS011;11215;51.938;8.464;2023-02-28T15:35:18;3.27;;;2.80;;
22097;SDS011;11215;51.938;8.464;2023-02-28T15:37:54;4.80;;;2.90;;
22097;SDS011;11215;51.938;8.464;2023-02-28T15:40:50;4.47;;;3.20;;
22097;SDS011;11215;51.938;8.464;2023-02-28T15:43:24;3.60;;;2.80;;
22097;SDS011;11215;51.938;8.464;2023-02-28T15:46:03;2.87;;;2.57;;
22097;SDS011;11215;51.938;8.464;2023-02-28T15:48:36;2.63;;;2.33;;
22097;SDS011;11215;51.938;8.464;2023-02-28T15:54:34;3.03;;;2.37;;
22097;SDS011;11215;51.938;8.464;2023-02-28T15:57:06;2.47;;;2.10;;
22097;SDS011;11215;51.938;8.464;2023-02-28T15:59:36;2.80;;;2.30;;
22097;SDS011;11215;51.938;8.464;2023-02-28T16:04:34;2.50;;;2.30;;
22097;SDS011;11215;51.938;8.464;2023-02-28T16:07:04;5.07;;;2.37;;
22097;SDS011;11215;51.938;8.464;2023-02-28T16:09:31;3.00;;;2.30;;
22097;SDS011;11215;51.938;8.464;2023-02-28T16:11:59;3.77;;;2.50;;
22097;SDS011;11215;51.938;8.464;2023-02-28T16:14:30;5.27;;;2.70;;
22097;SDS011;11215;51.938;8.464;2023-02-28T16:17:02;5.80;;;2.57;;
22097;SDS011;11215;51.938;8.464;2023-02-28T16:19:29;3.07;;;2.57;;
22097;SDS011;11215;51.938;8.464;2023-02-28T16:21:55;4.70;;;2.27;;
22097;SDS011;11215;51.938;8.464;2023-02-28T16:24:21;3.37;;;2.63;;
22097;SDS011;11215;51.938;8.464;2023-02-28T16:26:47;4.20;;;2.67;;
22097;SDS011;11215;51.938;8.464;2023-02-28T16:29:22;4.03;;;2.40;;
22097;SDS011;11215;51.938;8.464;2023-02-28T16:31:55;4.63;;;3.67;;
22097;SDS011;11215;51.938;8.464;2023-02-28T16:34:21;3.47;;;2.93;;
22097;SDS011;11215;51.938;8.464;2023-02-28T16:36:48;3.87;;;2.67;;
22097;SDS011;11215;51.938;8.464;2023-02-28T16:39:15;4.13;;;2.80;;
22097;SDS011;11215;51.938;8.464;2023-02-28T16:41:44;3.20;;;2.70;;
22097;SDS011;11215;51.938;8.464;2023-02-28T16:44:12;3.53;;;2.80;;
22097;SDS011;11215;51.938;8.464;2023-02-28T16:46:45;3.07;;;2.73;;
22097;SDS011;11215;51.938;8.464;2023-02-28T16:49:11;4.47;;;2.93;;
22097;SDS011;11215;51.938;8.464;2023-02-28T16:54:22;3.67;;;2.87;;
22097;SDS011;11215;51.938;8.464;2023-02-28T16:56:48;4.43;;;2.80;;
22097;SDS011;11215;51.938;8.464;2023-02-28T16:59:15;4.30;;;3.00;;
22097;SDS011;11215;51.938;8.464;2023-02-28T17:01:46;4.53;;;3.33;;
22097;SDS011;11215;51.938;8.464;2023-02-28T17:06:59;4.67;;;3.40;;
22097;SDS011;11215;51.938;8.464;2023-02-28T17:09:25;4.37;;;3.97;;
22097;SDS011;11215;51.938;8.464;2023-02-28T17:11:51;3.90;;;3.47;;
22097;SDS011;11215;51.938;8.464;2023-02-28T17:14:18;2.83;;;2.57;;
22097;SDS011;11215;51.938;8.464;2023-02-28T17:16:43;4.03;;;3.13;;
22097;SDS011;11215;51.938;8.464;2023-02-28T17:19:10;5.30;;;3.30;;
22097;SDS011;11215;51.938;8.464;2023-02-28T17:21:38;4.77;;;2.80;;
22097;SDS011;11215;51.938;8.464;2023-02-28T17:24:06;3.83;;;2.80;;
22097;SDS011;11215;51.938;8.464;2023-02-28T17:26:33;3.33;;;2.77;;
22097;SDS011;11215;51.938;8.464;2023-02-28T17:29:00;3.73;;;3.00;;
22097;SDS011;11215;51.938;8.464;2023-02-28T17:31:26;3.70;;;2.73;;
22097;SDS011;11215;51.938;8.464;2023-02-28T17:33:53;3.60;;;2.90;;
22097;SDS011;11215;51.938;8.464;2023-02-28T17:36:22;5.73;;;3.30;;
22097;SDS011;11215;51.938;8.464;2023-02-28T17:38:50;5.63;;;3.43;;
22097;SDS011;11215;51.938;8.464;2023-02-28T17:41:17;4.73;;;3.93;;
22097;SDS011;11215;51.938;8.464;2023-02-28T17:43:43;5.80;;;3.83;;
22097;SDS011;11215;51.938;8.464;2023-02-28T17:46:27;4.67;;;3.97;;
22097;SDS011;11215;51.938;8.464;2023-02-28T17:48:53;8.47;;;3.87;;
22097;SDS011;11215;51.938;8.464;2023-02-28T17:51:19;5.97;;;3.83;;
22097;SDS011;11215;51.938;8.464;2023-02-28T17:53:46;7.13;;;3.50;;
22097;SDS011;11215;51.938;8.464;2023-02-28T17:56:17;3.33;;;2.77;;
22097;SDS011;11215;51.938;8.464;2023-02-28T17:58:45;4.87;;;3.17;;
22097;SDS011;11215;51.938;8.464;2023-02-28T18:01:11;4.00;;;2.70;;
22097;SDS011;11215;51.938;8.464;2023-02-28T18:03:37;4.70;;;2.80;;
22097;SDS011;11215;51.938;8.464;2023-02-28T18:06:03;3.70;;;3.03;;
22097;SDS011;11215;51.938;8.464;2023-02-28T18:08:29;4.63;;;3.13;;
22097;SDS011;11215;51.938;8.464;2023-02-28T18:10:56;4.30;;;3.37;;
22097;SDS011;11215;51.938;8.464;2023-02-28T18:13:21;4.30;;;3.23;;
22097;SDS011;11215;51.938;8.464;2023-02-28T18:15:47;6.70;;;3.83;;
22097;SDS011;11215;51.938;8.464;2023-02-28T18:18:13;4.80;;;4.30;;
22097;SDS011;11215;51.938;8.464;2023-02-28T18:20:40;5.80;;;4.30;;
22097;SDS011;11215;51.938;8.464;2023-02-28T18:26:28;4.73;;;3.73;;
22097;SDS011;11215;51.938;8.464;2023-02-28T18:28:54;6.67;;;4.63;;
22097;SDS011;11215;51.938;8.464;2023-02-28T18:31:20;5.57;;;4.00;;
22097;SDS011;11215;51.938;8.464;2023-02-28T18:33:49;5.10;;;4.00;;
22097;SDS011;11215;51.938;8.464;2023-02-28T18:36:16;5.60;;;4.37;;
22097;SDS011;11215;51.938;8.464;2023-02-28T18:38:43;7.10;;;3.93;;
22097;SDS011;11215;51.938;8.464;2023-02-28T18:41:09;5.50;;;3.63;;
22097;SDS011;11215;51.938;8.464;2023-02-28T18:43:36;5.47;;;3.50;;
22097;SDS011;11215;51.938;8.464;2023-02-28T18:46:05;5.53;;;3.77;;
22097;SDS011;11215;51.938;8.464;2023-02-28T18:48:37;4.90;;;3.20;;
22097;SDS011;11215;51.938;8.464;2023-02-28T18:51:13;5.60;;;3.60;;
22097;SDS011;11215;51.938;8.464;2023-02-28T18:53:41;11.70;;;5.80;;
22097;SDS011;11215;51.938;8.464;2023-02-28T18:56:09;10.83;;;5.43;;
22097;SDS011;11215;51.938;8.464;2023-02-28T18:58:37;12.30;;;7.17;;
22097;SDS011;11215;51.938;8.464;2023-02-28T19:01:04;11.93;;;6.90;;
22097;SDS011;11215;51.938;8.464;2023-02-28T19:03:40;10.37;;;5.67;;
22097;SDS011;11215;51.938;8.464;2023-02-28T19:06:05;8.73;;;5.33;;
22097;SDS011;11215;51.938;8.464;2023-02-28T19:08:32;10.43;;;5.77;;
22097;SDS011;11215;51.938;8.464;2023-02-28T19:10:57;10.03;;;6.00;;
22097;SDS011;11215;51.938;8.464;2023-02-28T19:13:23;7.80;;;5.00;;
22097;SDS011;11215;51.938;8.464;2023-02-28T19:15:48;8.80;;;4.83;;
22097;SDS011;11215;51.938;8.464;2023-02-28T19:18:14;7.07;;;5.00;;
22097;SDS011;11215;51.938;8.464;2023-02-28T19:20:40;7.27;;;4.27;;
22097;SDS011;11215;51.938;8.464;2023-02-28T19:23:05;8.90;;;5.00;;
22097;SDS011;11215;51.938;8.464;2023-02-28T19:25:31;8.37;;;4.80;;
22097;SDS011;11215;51.938;8.464;2023-02-28T19:27:57;10.57;;;4.53;;
22097;SDS011;11215;51.938;8.464;2023-02-28T19:30:22;6.40;;;4.40;;
22097;SDS011;11215;51.938;8.464;2023-02-28T19:32:48;6.70;;;4.53;;
22097;SDS011;11215;51.938;8.464;2023-02-28T19:35:14;5.03;;;4.23;;
22097;SDS011;11215;51.938;8.464;2023-02-28T19:37:40;7.10;;;4.00;;
22097;SDS011;11215;51.938;8.464;2023-02-28T19:40:07;7.07;;;4.63;;
22097;SDS011;11215;51.938;8.464;2023-02-28T19:42:33;6.70;;;5.00;;
22097;SDS011;11215;51.938;8.464;2023-02-28T19:45:00;7.37;;;5.13;;
22097;SDS011;11215;51.938;8.464;2023-02-28T19:47:26;8.77;;;5.40;;
22097;SDS011;11215;51.938;8.464;2023-02-28T19:49:52;8.97;;;5.20;;
22097;SDS011;11215;51.938;8.464;2023-02-28T19:52:19;10.33;;;6.00;;
22097;SDS011;11215;51.938;8.464;2023-02-28T19:54:46;8.13;;;6.20;;
22097;SDS011;11215;51.938;8.464;2023-02-28T19:57:12;6.60;;;5.43;;
22097;SDS011;11215;51.938;8.464;2023-02-28T19:59:38;8.60;;;5.87;;
22097;SDS011;11215;51.938;8.464;2023-02-28T20:02:03;9.10;;;6.00;;
22097;SDS011;11215;51.938;8.464;2023-02-28T20:04:30;9.13;;;6.23;;
22097;SDS011;11215;51.938;8.464;2023-02-28T20:06:55;7.83;;;6.70;;
22097;SDS011;11215;51.938;8.464;2023-02-28T20:09:22;8.63;;;6.53;;
22097;SDS011;11215;51.938;8.464;2023-02-28T20:11:47;7.83;;;6.77;;
22097;SDS011;11215;51.938;8.464;2023-02-28T20:14:14;11.80;;;6.73;;
22097;SDS011;11215;51.938;8.464;2023-02-28T20:16:42;9.20;;;6.97;;
22097;SDS011;11215;51.938;8.464;2023-02-28T20:19:09;11.00;;;7.03;;
22097;SDS011;11215;51.938;8.464;2023-02-28T20:21:35;10.33;;;7.10;;
22097;SDS011;11215;51.938;8.464;2023-02-28T20:24:06;9.33;;;6.83;;
22097;SDS011;11215;51.938;8.464;2023-02-28T20:26:32;11.73;;;7.47;;
22097;SDS011;11215;51.938;8.464;2023-02-28T20:29:01;16.50;;;10.27;;
22097;SDS011;11215;51.938;8.464;2023-02-28T20:31:27;15.83;;;8.57;;
22097;SDS011;11215;51.938;8.464;2023-02-28T20:33:54;11.83;;;7.23;;
22097;SDS011;11215;51.938;8.464;2023-02-28T20:36:20;10.27;;;6.97;;
22097;SDS011;11215;51.938;8.464;2023-02-28T20:38:47;10.07;;;6.43;;
22097;SDS011;11215;51.938;8.464;2023-02-28T20:41:17;8.47;;;6.13;;
22097;SDS011;11215;51.938;8.464;2023-02-28T20:43:42;8.23;;;5.60;;
22097;SDS011;11215;51.938;8.464;2023-02-28T20:46:11;9.40;;;5.50;;
22097;SDS011;11215;51.938;8.464;2023-02-28T20:48:37;8.03;;;5.53;;
22097;SDS011;11215;51.938;8.464;2023-02-28T20:51:09;6.07;;;4.77;;
22097;SDS011;11215;51.938;8.464;2023-02-28T20:53:35;7.30;;;5.13;;
22097;SDS011;11215;51.938;8.464;2023-02-28T20:56:05;7.13;;;4.80;;
22097;SDS011;11215;51.938;8.464;2023-02-28T20:58:34;6.13;;;4.70;;
22097;SDS011;11215;51.938;8.464;2023-02-28T21:01:06;6.53;;;4.63;;
22097;SDS011;11215;51.938;8.464;2023-02-28T21:03:47;6.10;;;4.73;;
22097;SDS011;11215;51.938;8.464;2023-02-28T21:06:14;6.73;;;4.43;;
22097;SDS011;11215;51.938;8.464;2023-02-28T21:08:41;6.33;;;4.87;;
22097;SDS011;11215;51.938;8.464;2023-02-28T21:11:14;8.17;;;4.83;;
22097;SDS011;11215;51.938;8.464;2023-02-28T21:13:42;7.10;;;5.20;;
22097;SDS011;11215;51.938;8.464;2023-02-28T21:16:10;8.90;;;5.40;;
22097;SDS011;11215;51.938;8.464;2023-02-28T21:18:38;7.17;;;4.77;;
22097;SDS011;11215;51.938;8.464;2023-02-28T21:21:06;6.27;;;4.93;;
22097;SDS011;11215;51.938;8.464;2023-02-28T21:23:34;8.80;;;6.00;;
22097;SDS011;11215;51.938;8.464;2023-02-28T21:26:00;9.87;;;6.73;;
22097;SDS011;11215;51.938;8.464;2023-02-28T21:28:33;9.37;;;6.77;;
22097;SDS011;11215;51.938;8.464;2023-02-28T21:31:03;9.77;;;6.90;;
22097;SDS011;11215;51.938;8.464;2023-02-28T21:33:31;11.37;;;7.13;;
22097;SDS011;11215;51.938;8.464;2023-02-28T21:36:01;11.83;;;7.73;;
22097;SDS011;11215;51.938;8.464;2023-02-28T21:38:35;13.53;;;7.80;;
22097;SDS011;11215;51.938;8.464;2023-02-28T21:41:02;12.73;;;8.47;;
22097;SDS011;11215;51.938;8.464;2023-02-28T21:43:35;13.03;;;8.43;;
22097;SDS011;11215;51.938;8.464;2023-02-28T21:46:02;14.00;;;8.43;;
22097;SDS011;11215;51.938;8.464;2023-02-28T21:48:29;16.07;;;9.00;;
22097;SDS011;11215;51.938;8.464;2023-02-28T21:51:03;12.43;;;8.57;;
22097;SDS011;11215;51.938;8.464;2023-02-28T21:53:35;11.73;;;8.07;;
22097;SDS011;11215;51.938;8.464;2023-02-28T21:56:02;11.60;;;7.93;;
22097;SDS011;11215;51.938;8.464;2023-02-28T21:58:39;11.50;;;7.70;;
22097;SDS011;11215;51.938;8.464;2023-02-28T22:01:05;12.83;;;8.20;;
22097;SDS011;11215;51.938;8.464;2023-02-28T22:03:39;11.77;;;8.10;;
22097;SDS011;11215;51.938;8.464;2023-02-28T22:06:12;11.63;;;7.63;;
22097;SDS011;11215;51.938;8.464;2023-02-28T22:08:47;9.47;;;6.13;;
22097;SDS011;11215;51.938;8.464;2023-02-28T22:11:15;7.90;;;6.27;;
22097;SDS011;11215;51.938;8.464;2023-02-28T22:13:41;8.73;;;6.10;;
22097;SDS011;11215;51.938;8.464;2023-02-28T22:16:09;8.73;;;6.23;;
22097;SDS011;11215;51.938;8.464;2023-02-28T22:18:37;9.17;;;6.10;;
22097;SDS011;11215;51.938;8.464;2023-02-28T22:21:03;8.93;;;6.40;;
22097;SDS011;11215;51.938;8.464;2023-02-28T22:23:30;8.10;;;6.27;;
22097;SDS011;11215;51.938;8.464;2023-02-28T22:25:58;7.83;;;6.03;;
22097;SDS011;11215;51.938;8.464;2023-02-28T22:28:24;6.40;;;5.37;;
22097;SDS011;11215;51.938;8.464;2023-02-28T22:30:52;9.93;;;6.70;;
22097;SDS011;11215;51.938;8.464;2023-02-28T22:33:18;7.87;;;6.20;;
22097;SDS011;11215;51.938;8.464;2023-02-28T22:35:44;9.67;;;6.37;;
22097;SDS011;11215;51.938;8.464;2023-02-28T22:38:10;10.73;;;6.90;;
22097;SDS011;11215;51.938;8.464;2023-02-28T22:40:36;9.87;;;6.53;;
22097;SDS011;11215;51.938;8.464;2023-02-28T22:43:03;8.17;;;6.00;;
22097;SDS011;11215;51.938;8.464;2023-02-28T22:45:29;9.27;;;6.20;;
22097;SDS011;11215;51.938;8.464;2023-02-28T22:47:55;9.30;;;6.10;;
22097;SDS011;11215;51.938;8.464;2023-02-28T22:50:20;8.27;;;5.50;;
22097;SDS011;11215;51.938;8.464;2023-02-28T22:52:46;9.03;;;5.63;;
22097;SDS011;11215;51.938;8.464;2023-02-28T22:55:12;8.77;;;5.63;;
22097;SDS011;11215;51.938;8.464;2023-02-28T22:57:37;11.27;;;5.70;;
22097;SDS011;11215;51.938;8.464;2023-02-28T23:00:04;7.37;;;5.40;;
22097;SDS011;11215;51.938;8.464;2023-02-28T23:02:33;6.97;;;5.23;;